Time;durP1;ratioP1;P1;durP2;ratioP2;P2;SDS_P1;SDS_P2;PMS_P1;PMS_P2;Temp;Humidity;BMP_temperature;BMP_pressure;BME280_temperature;BME280_humidity;BME280_pressure;Samples;Min_cycle;Max_cycle;Signal;HPM_P1;HPM_P2
2023/02/12 00:01:41;;;;;;;24.13;17.38;;;;;;;;;;6123662;23;20342;-85
2023/02/12 00:04:11;;;;;;;25.02;18.42;;;;;;;;;;6119949;23;20018;-85
2023/02/12 00:06:38;;;;;;;23.45;17.27;;;;;;;;;;6097072;23;20025;-85
2023/02/12 00:09:07;;;;;;;22.55;18.27;;;;;;;;;;6097002;23;20025;-85
2023/02/12 00:11:34;;;;;;;25.08;19.60;;;;;;;;;;6133019;23;20025;-85
2023/02/12 00:14:02;;;;;;;19.77;16.13;;;;;;;;;;6122625;23;20014;-85
2023/02/12 00:16:29;;;;;;;20.92;16.63;;;;;;;;;;6120790;23;20454;-85
2023/02/12 00:18:58;;;;;;;26.08;19.08;;;;;;;;;;6146523;23;20086;-85
2023/02/12 00:21:25;;;;;;;22.10;16.73;;;;;;;;;;6145112;23;20470;-85
2023/02/12 00:23:52;;;;;;;23.35;15.80;;;;;;;;;;6122023;23;20018;-85
2023/02/12 00:26:22;;;;;;;21.10;18.15;;;;;;;;;;6095408;23;20018;-84
2023/02/12 00:28:52;;;;;;;28.50;17.90;;;;;;;;;;6127940;23;20014;-85
2023/02/12 00:31:21;;;;;;;25.75;17.05;;;;;;;;;;6100545;23;20029;-85
2023/02/12 00:33:50;;;;;;;23.35;19.33;;;;;;;;;;6147581;23;20021;-85
2023/02/12 00:36:23;;;;;;;23.13;17.95;;;;;;;;;;6123221;23;20021;-85
2023/02/12 00:38:51;;;;;;;24.55;16.88;;;;;;;;;;6123640;23;20013;-85
2023/02/12 00:41:25;;;;;;;26.40;18.20;;;;;;;;;;6133321;23;20351;-85
2023/02/12 00:43:53;;;;;;;19.77;17.02;;;;;;;;;;6098900;23;20025;-85
2023/02/12 00:46:22;;;;;;;18.17;14.88;;;;;;;;;;6123018;23;20018;-85
2023/02/12 00:48:50;;;;;;;22.23;16.08;;;;;;;;;;6112053;23;20025;-88
2023/02/12 01:15:17;;;;;;;21.80;15.68;;;;;;;;;;6155122;23;20025;-87
2023/02/12 01:17:45;;;;;;;23.08;18.35;;;;;;;;;;6152551;23;20017;-87
2023/02/12 01:20:16;;;;;;;19.67;15.18;;;;;;;;;;6121821;23;20474;-87
2023/02/12 01:22:43;;;;;;;25.02;18.23;;;;;;;;;;6123180;23;20017;-87
2023/02/12 01:25:12;;;;;;;25.63;19.40;;;;;;;;;;6123789;23;20018;-88
2023/02/12 01:27:41;;;;;;;29.92;17.55;;;;;;;;;;6121828;23;20021;-87
2023/02/12 01:30:13;;;;;;;23.10;16.25;;;;;;;;;;6122044;23;20025;-87
2023/02/12 01:32:44;;;;;;;20.73;16.25;;;;;;;;;;6133877;23;20025;-87
2023/02/12 01:35:12;;;;;;;22.75;17.88;;;;;;;;;;6124486;23;20014;-87
2023/02/12 01:37:41;;;;;;;24.75;17.15;;;;;;;;;;6122470;23;20033;-88
2023/02/12 01:40:11;;;;;;;18.20;14.98;;;;;;;;;;6097507;23;20477;-88
2023/02/12 01:42:41;;;;;;;21.43;16.37;;;;;;;;;;6131436;23;20017;-88
2023/02/12 01:45:43;;;;;;;20.80;17.00;;;;;;;;;;6123068;23;20342;-88
2023/02/12 01:48:12;;;;;;;22.27;17.42;;;;;;;;;;6100957;23;20021;-87
2023/02/12 01:50:41;;;;;;;22.42;15.35;;;;;;;;;;6122125;23;20018;-87
2023/02/12 01:53:09;;;;;;;20.45;15.98;;;;;;;;;;6122608;23;20021;-88
2023/02/12 01:55:39;;;;;;;20.30;16.02;;;;;;;;;;6123661;23;20025;-88
2023/02/12 01:58:09;;;;;;;26.40;16.67;;;;;;;;;;6122705;23;20033;-88
2023/02/12 02:00:38;;;;;;;25.67;18.35;;;;;;;;;;6121822;23;20022;-88
2023/02/12 02:03:09;;;;;;;25.40;19.08;;;;;;;;;;6123116;23;20017;-88
2023/02/12 02:05:44;;;;;;;23.75;18.30;;;;;;;;;;6125160;23;20037;-87
2023/02/12 02:08:12;;;;;;;25.90;18.70;;;;;;;;;;6132439;23;20017;-87
2023/02/12 02:10:39;;;;;;;24.80;20.02;;;;;;;;;;6124838;23;20014;-88
2023/02/12 02:15:58;;;;;;;17.70;15.75;;;;;;;;;;6124183;23;20025;-88
2023/02/12 02:18:32;;;;;;;21.95;16.88;;;;;;;;;;6122767;23;20018;-87
2023/02/12 02:21:33;;;;;;;27.02;19.85;;;;;;;;;;6135191;23;20022;-88
2023/02/12 02:24:39;;;;;;;28.83;21.10;;;;;;;;;;6121930;23;20022;-88
2023/02/12 02:27:15;;;;;;;27.37;19.43;;;;;;;;;;6123499;23;20346;-87
2023/02/12 02:30:13;;;;;;;24.83;19.50;;;;;;;;;;6127406;23;20017;-87
2023/02/12 02:32:50;;;;;;;24.40;21.05;;;;;;;;;;6122710;23;20028;-88
2023/02/12 02:35:26;;;;;;;22.33;17.55;;;;;;;;;;6133947;23;20021;-88
2023/02/12 02:37:56;;;;;;;;;;;;;;;;;;6133974;23;20014;-87
2023/02/12 02:40:26;;;;;;;30.05;19.25;;;;;;;;;;6124901;23;19917;-88
2023/02/12 02:43:01;;;;;;;29.40;21.45;;;;;;;;;;6119424;23;20484;-88
2023/02/12 02:45:34;;;;;;;21.90;18.50;;;;;;;;;;6123158;23;20022;-88
2023/02/12 02:48:10;;;;;;;27.88;21.95;;;;;;;;;;6121929;23;20025;-88
2023/02/12 02:50:41;;;;;;;23.15;18.55;;;;;;;;;;6134524;23;20014;-87
2023/02/12 02:53:10;;;;;;;25.38;19.10;;;;;;;;;;6131342;23;20438;-88
2023/02/12 02:55:44;;;;;;;24.90;21.63;;;;;;;;;;6121069;23;20018;-87
2023/02/12 02:58:14;;;;;;;22.92;20.30;;;;;;;;;;6122227;23;20024;-87
2023/02/12 03:00:48;;;;;;;25.13;17.48;;;;;;;;;;6133328;23;20018;-88
2023/02/12 03:03:21;;;;;;;25.85;18.20;;;;;;;;;;6133177;23;20021;-87
2023/02/12 03:05:50;;;;;;;23.70;18.30;;;;;;;;;;6132903;23;20018;-87
2023/02/12 03:32:27;;;;;;;24.67;17.23;;;;;;;;;;6153596;23;20017;-87
2023/02/12 03:35:07;;;;;;;25.23;19.60;;;;;;;;;;6163197;23;20017;-87
2023/02/12 03:37:37;;;;;;;19.77;17.20;;;;;;;;;;6161962;23;20024;-87
2023/02/12 03:40:11;;;;;;;28.58;16.95;;;;;;;;;;6153352;23;20013;-87
2023/02/12 03:42:42;;;;;;;23.30;16.75;;;;;;;;;;6161835;23;20013;-87
2023/02/12 03:45:14;;;;;;;22.48;16.30;;;;;;;;;;6163486;23;20021;-87
2023/02/12 03:47:48;;;;;;;21.23;16.55;;;;;;;;;;6150033;23;20072;-87
2023/02/12 03:50:23;;;;;;;20.10;17.88;;;;;;;;;;6152705;23;20041;-87
2023/02/12 03:52:51;;;;;;;32.47;20.10;;;;;;;;;;6150647;23;20036;-87
2023/02/12 03:55:18;;;;;;;23.48;18.17;;;;;;;;;;6153069;23;20014;-87
2023/02/12 03:57:50;;;;;;;21.95;16.80;;;;;;;;;;6149720;23;20025;-87
2023/02/12 04:00:20;;;;;;;27.55;17.02;;;;;;;;;;6153113;23;20013;-87
2023/02/12 04:02:49;;;;;;;22.33;17.73;;;;;;;;;;6150200;23;20025;-87
2023/02/12 04:05:21;;;;;;;20.13;16.48;;;;;;;;;;6161518;23;20029;-87
2023/02/12 04:07:49;;;;;;;23.58;18.38;;;;;;;;;;6150779;23;20017;-87
2023/02/12 04:10:17;;;;;;;28.23;19.48;;;;;;;;;;6125617;23;20018;-87
2023/02/12 04:12:50;;;;;;;21.75;17.98;;;;;;;;;;6151284;23;20083;-87
2023/02/12 04:15:37;;;;;;;21.00;15.73;;;;;;;;;;6163180;23;20040;-87
2023/02/12 04:18:13;;;;;;;22.02;16.08;;;;;;;;;;6161974;23;20024;-87
2023/02/12 04:20:48;;;;;;;19.67;14.90;;;;;;;;;;6161721;23;20021;-87
2023/02/12 04:23:24;;;;;;;25.98;16.20;;;;;;;;;;6162248;23;20013;-87
2023/02/12 04:25:57;;;;;;;21.88;14.48;;;;;;;;;;6163837;23;20020;-87
2023/02/12 04:28:31;;;;;;;21.00;16.00;;;;;;;;;;6126168;23;20018;-87
2023/02/12 04:31:01;;;;;;;20.35;13.98;;;;;;;;;;6157654;23;20021;-87
2023/02/12 04:33:35;;;;;;;18.17;15.63;;;;;;;;;;6126523;23;20025;-87
2023/02/12 04:36:07;;;;;;;23.23;16.75;;;;;;;;;;6162173;23;20010;-87
2023/02/12 04:38:39;;;;;;;21.55;15.50;;;;;;;;;;6126414;23;20025;-87
2023/02/12 04:41:06;;;;;;;19.25;15.70;;;;;;;;;;6162021;23;20021;-87
2023/02/12 04:43:37;;;;;;;23.70;16.15;;;;;;;;;;6151957;23;20014;-87
2023/02/12 04:46:08;;;;;;;18.92;15.68;;;;;;;;;;6151544;23;20029;-87
2023/02/12 04:48:50;;;;;;;18.60;13.50;;;;;;;;;;6160648;23;20032;-87
2023/02/12 04:51:17;;;;;;;15.43;13.40;;;;;;;;;;6152517;23;20339;-87
2023/02/12 05:17:48;;;;;;;18.02;14.38;;;;;;;;;;6183247;23;20021;-87
2023/02/12 05:20:16;;;;;;;15.40;13.00;;;;;;;;;;6157831;23;20021;-88
2023/02/12 05:22:43;;;;;;;15.70;12.88;;;;;;;;;;6157932;23;20024;-88
2023/02/12 05:25:10;;;;;;;22.30;13.52;;;;;;;;;;6156900;23;20040;-87
2023/02/12 05:27:40;;;;;;;18.55;13.23;;;;;;;;;;6158220;23;20017;-88
2023/02/12 05:30:09;;;;;;;17.92;14.68;;;;;;;;;;6157774;23;20040;-87
2023/02/12 05:32:36;;;;;;;19.90;14.50;;;;;;;;;;6184288;23;20017;-88
2023/02/12 05:35:06;;;;;;;18.10;14.13;;;;;;;;;;6184898;23;20013;-87
2023/02/12 05:37:35;;;;;;;15.75;13.18;;;;;;;;;;6185638;23;20013;-88
2023/02/12 05:40:02;;;;;;;17.50;13.13;;;;;;;;;;6159452;23;20024;-87
2023/02/12 05:42:29;;;;;;;18.23;13.10;;;;;;;;;;6134326;23;20021;-87
2023/02/12 05:44:57;;;;;;;18.58;13.93;;;;;;;;;;6158047;23;20021;-87
2023/02/12 05:47:26;;;;;;;18.42;13.90;;;;;;;;;;6185958;23;20020;-88
2023/02/12 05:49:53;;;;;;;17.63;12.88;;;;;;;;;;6158594;23;20020;-87
2023/02/12 05:52:24;;;;;;;20.10;14.38;;;;;;;;;;6158187;23;20028;-88
2023/02/12 05:54:51;;;;;;;19.35;13.45;;;;;;;;;;6183328;23;20019;-87
2023/02/12 05:57:19;;;;;;;15.50;10.82;;;;;;;;;;6182537;23;20014;-87
2023/02/12 05:59:48;;;;;;;15.30;12.23;;;;;;;;;;6187189;23;20020;-87
2023/02/12 06:02:15;;;;;;;18.45;13.75;;;;;;;;;;6159873;23;20189;-87
2023/02/12 06:04:45;;;;;;;21.35;12.95;;;;;;;;;;6159128;23;20021;-87
2023/02/12 06:07:12;;;;;;;22.77;14.98;;;;;;;;;;6156493;23;20020;-88
2023/02/12 06:09:43;;;;;;;21.73;15.18;;;;;;;;;;6184459;23;20013;-87
2023/02/12 06:12:10;;;;;;;18.05;13.93;;;;;;;;;;6183231;23;20021;-88
2023/02/12 06:14:40;;;;;;;19.83;15.30;;;;;;;;;;6157579;23;20013;-88
2023/02/12 06:17:10;;;;;;;19.67;14.80;;;;;;;;;;6156908;23;20013;-87
2023/02/12 06:19:37;;;;;;;15.50;13.43;;;;;;;;;;6183820;23;20020;-88
2023/02/12 06:22:05;;;;;;;19.80;14.88;;;;;;;;;;6156691;23;20017;-88
2023/02/12 06:24:32;;;;;;;20.85;14.50;;;;;;;;;;6157669;23;20028;-89
2023/02/12 06:27:04;;;;;;;19.00;12.80;;;;;;;;;;6156861;23;20021;-87
2023/02/12 06:29:31;;;;;;;18.63;15.82;;;;;;;;;;6185944;23;20017;-87
2023/02/12 06:32:01;;;;;;;18.85;15.48;;;;;;;;;;6184291;23;20028;-88
2023/02/12 06:34:28;;;;;;;17.15;12.73;;;;;;;;;;6159134;23;20013;-89
2023/02/12 06:36:55;;;;;;;17.67;13.55;;;;;;;;;;6159040;23;20028;-88
2023/02/12 06:39:23;;;;;;;17.63;13.55;;;;;;;;;;6134008;23;20353;-88
2023/02/12 06:41:53;;;;;;;18.05;15.27;;;;;;;;;;6157819;23;20017;-89
2023/02/12 06:44:24;;;;;;;15.95;12.18;;;;;;;;;;6185595;23;20453;-89
2023/02/12 06:46:54;;;;;;;17.75;12.98;;;;;;;;;;6131862;23;20021;-89
2023/02/12 06:49:21;;;;;;;19.52;12.82;;;;;;;;;;6179645;23;20322;-85
2023/02/12 06:51:48;;;;;;;14.43;11.45;;;;;;;;;;6182670;23;20017;-85
2023/02/12 06:54:17;;;;;;;16.90;12.73;;;;;;;;;;6183136;23;20013;-85
2023/02/12 06:56:45;;;;;;;19.35;12.02;;;;;;;;;;6183400;23;20016;-85
2023/02/12 06:59:14;;;;;;;20.95;13.85;;;;;;;;;;6183177;23;20023;-85
2023/02/12 07:01:43;;;;;;;21.50;13.70;;;;;;;;;;6156896;23;20028;-85
2023/02/12 07:04:10;;;;;;;16.60;13.40;;;;;;;;;;6182358;23;20021;-85
2023/02/12 07:06:38;;;;;;;18.88;13.15;;;;;;;;;;6183352;23;20449;-85
2023/02/12 07:09:05;;;;;;;15.93;12.55;;;;;;;;;;6164554;23;20476;-85
2023/02/12 07:11:35;;;;;;;17.65;12.77;;;;;;;;;;6182867;23;20013;-85
2023/02/12 07:14:02;;;;;;;14.73;11.65;;;;;;;;;;6156465;23;20352;-85
2023/02/12 07:16:32;;;;;;;14.82;12.55;;;;;;;;;;6156177;23;20460;-85
2023/02/12 07:19:00;;;;;;;17.05;13.38;;;;;;;;;;6132746;23;20021;-85
2023/02/12 07:21:28;;;;;;;20.63;13.32;;;;;;;;;;6154460;23;20453;-86
2023/02/12 07:23:55;;;;;;;16.92;11.27;;;;;;;;;;6182756;23;20017;-85
2023/02/12 07:26:22;;;;;;;16.98;11.35;;;;;;;;;;6131092;23;20116;-85
2023/02/12 07:28:54;;;;;;;21.40;12.70;;;;;;;;;;6155024;23;20353;-85
2023/02/12 07:31:23;;;;;;;17.85;12.30;;;;;;;;;;6183036;23;20036;-85
2023/02/12 07:33:53;;;;;;;16.85;13.27;;;;;;;;;;6182464;23;20017;-86
2023/02/12 07:36:26;;;;;;;13.98;10.45;;;;;;;;;;6167055;23;20277;-86
2023/02/12 07:38:53;;;;;;;16.00;10.95;;;;;;;;;;6151414;23;20425;-89
2023/02/12 07:41:23;;;;;;;15.77;12.20;;;;;;;;;;6178934;23;20017;-87
2023/02/12 07:43:54;;;;;;;17.70;11.88;;;;;;;;;;6131557;23;20020;-87
2023/02/12 07:46:28;;;;;;;20.30;12.02;;;;;;;;;;6191100;23;20028;-87
2023/02/12 07:48:59;;;;;;;22.15;13.73;;;;;;;;;;6189462;23;20020;-87
2023/02/12 07:51:28;;;;;;;21.55;14.48;;;;;;;;;;6156491;23;20021;-87
2023/02/12 07:53:56;;;;;;;18.50;13.95;;;;;;;;;;6191414;23;20013;-87
2023/02/12 07:56:28;;;;;;;15.38;11.98;;;;;;;;;;6132110;23;20349;-87
2023/02/12 07:58:55;;;;;;;16.98;13.65;;;;;;;;;;6164941;23;20479;-87
2023/02/12 08:01:25;;;;;;;19.35;11.18;;;;;;;;;;6183760;23;20017;-87
2023/02/12 08:03:53;;;;;;;18.27;12.45;;;;;;;;;;6181954;23;20022;-87
2023/02/12 08:06:24;;;;;;;13.68;11.93;;;;;;;;;;6132216;23;20013;-87
2023/02/12 08:08:53;;;;;;;15.15;11.65;;;;;;;;;;6183797;23;20016;-87
2023/02/12 08:11:21;;;;;;;17.60;14.05;;;;;;;;;;6156957;23;20020;-87
2023/02/12 08:13:49;;;;;;;13.23;11.80;;;;;;;;;;6155959;23;20009;-87
2023/02/12 08:16:18;;;;;;;20.25;12.10;;;;;;;;;;6156352;23;20021;-87
2023/02/12 08:18:48;;;;;;;16.42;12.35;;;;;;;;;;6156034;23;20013;-87
2023/02/12 08:21:17;;;;;;;18.48;13.00;;;;;;;;;;6157250;23;20353;-87
2023/02/12 08:23:44;;;;;;;15.90;12.73;;;;;;;;;;6181401;23;20020;-87
2023/02/12 08:26:17;;;;;;;19.63;13.80;;;;;;;;;;6182485;23;20021;-87
2023/02/12 08:28:49;;;;;;;19.58;13.93;;;;;;;;;;6191179;23;20013;-87
2023/02/12 08:31:18;;;;;;;17.48;12.55;;;;;;;;;;6182908;23;20013;-87
2023/02/12 08:33:47;;;;;;;21.17;13.57;;;;;;;;;;6182878;23;20024;-87
2023/02/12 08:36:15;;;;;;;16.90;12.90;;;;;;;;;;6155045;23;20025;-87
2023/02/12 08:38:44;;;;;;;19.60;13.95;;;;;;;;;;6157571;23;20020;-87
2023/02/12 08:41:15;;;;;;;20.73;14.68;;;;;;;;;;6192865;23;20017;-87
2023/02/12 08:43:44;;;;;;;20.10;15.50;;;;;;;;;;6157299;23;20357;-87
2023/02/12 08:46:16;;;;;;;17.08;14.48;;;;;;;;;;6131669;23;20021;-86
2023/02/12 08:48:43;;;;;;;20.23;14.80;;;;;;;;;;6157349;23;20013;-87
2023/02/12 08:51:13;;;;;;;20.20;13.98;;;;;;;;;;6193752;23;20013;-87
2023/02/12 08:53:44;;;;;;;17.27;15.20;;;;;;;;;;6197811;23;20013;-86
2023/02/12 08:56:15;;;;;;;22.08;16.40;;;;;;;;;;6158461;23;20020;-87
2023/02/12 08:58:42;;;;;;;22.35;17.33;;;;;;;;;;6159345;23;20024;-87
2023/02/12 09:01:14;;;;;;;20.42;15.40;;;;;;;;;;6186627;23;20013;-87
2023/02/12 09:03:42;;;;;;;24.40;18.38;;;;;;;;;;6185623;23;20013;-87
2023/02/12 09:06:10;;;;;;;20.98;16.25;;;;;;;;;;6134175;23;20028;-87
2023/02/12 09:08:38;;;;;;;19.40;16.45;;;;;;;;;;6184565;23;20036;-87
2023/02/12 09:11:07;;;;;;;19.77;15.27;;;;;;;;;;6172219;23;20013;-86
2023/02/12 09:13:36;;;;;;;20.52;15.82;;;;;;;;;;6177159;23;20457;-87
2023/02/12 09:16:05;;;;;;;20.20;15.00;;;;;;;;;;6185817;23;20013;-87
2023/02/12 09:18:33;;;;;;;19.95;15.30;;;;;;;;;;6159356;23;20017;-87
2023/02/12 09:21:01;;;;;;;28.88;16.55;;;;;;;;;;6186863;23;20013;-87
2023/02/12 09:23:28;;;;;;;23.92;15.38;;;;;;;;;;6187192;23;20024;-87
2023/02/12 09:25:58;;;;;;;19.92;12.65;;;;;;;;;;6186195;23;20453;-87
2023/02/12 09:28:25;;;;;;;19.98;15.48;;;;;;;;;;6183891;23;20017;-86
2023/02/12 09:30:56;;;;;;;16.33;12.93;;;;;;;;;;6186043;23;20020;-87
2023/02/12 09:33:24;;;;;;;25.60;16.85;;;;;;;;;;6184784;23;20017;-87
2023/02/12 09:35:51;;;;;;;22.77;16.48;;;;;;;;;;6186061;23;20024;-87
2023/02/12 09:38:18;;;;;;;22.35;15.52;;;;;;;;;;6159392;23;20024;-87
2023/02/12 09:40:54;;;;;;;21.33;14.60;;;;;;;;;;6161748;23;20453;-87
2023/02/12 09:43:29;;;;;;;18.80;13.18;;;;;;;;;;6188875;23;20013;-87
2023/02/12 09:46:05;;;;;;;19.00;13.35;;;;;;;;;;6199700;23;20013;-87
2023/02/12 09:48:43;;;;;;;18.23;12.73;;;;;;;;;;6186028;23;20027;-87
2023/02/12 09:51:14;;;;;;;19.77;14.75;;;;;;;;;;6168788;23;20013;-87
2023/02/12 09:53:44;;;;;;;16.23;14.45;;;;;;;;;;6159061;23;20341;-87
2023/02/12 09:56:17;;;;;;;17.33;12.55;;;;;;;;;;6168037;23;20357;-87
2023/02/12 09:58:46;;;;;;;21.35;13.23;;;;;;;;;;6184339;23;20013;-87
2023/02/12 10:01:21;;;;;;;19.85;15.05;;;;;;;;;;6195278;23;20024;-87
2023/02/12 10:03:52;;;;;;;21.45;15.55;;;;;;;;;;6168116;23;20032;-87
2023/02/12 10:06:21;;;;;;;18.38;13.70;;;;;;;;;;6182831;23;20016;-87
2023/02/12 10:09:20;;;;;;;17.70;13.40;;;;;;;;;;6192178;23;20013;-87
2023/02/12 10:11:55;;;;;;;23.98;14.60;;;;;;;;;;6178329;23;20025;-88
2023/02/12 10:14:47;;;;;;;16.63;12.65;;;;;;;;;;6183214;23;20032;-87
2023/02/12 10:17:24;;;;;;;18.65;14.13;;;;;;;;;;6192736;23;20453;-88
2023/02/12 10:20:19;;;;;;;21.52;14.48;;;;;;;;;;6134659;23;20017;-88
2023/02/12 10:22:54;;;;;;;19.33;15.20;;;;;;;;;;6156407;23;20025;-88
2023/02/12 10:25:26;;;;;;;16.73;12.50;;;;;;;;;;6185385;23;20264;-88
2023/02/12 10:27:57;;;;;;;18.93;13.63;;;;;;;;;;6154584;23;20043;-87
2023/02/12 10:30:31;;;;;;;20.05;14.40;;;;;;;;;;6159463;23;20016;-88
2023/02/12 10:33:03;;;;;;;19.27;14.45;;;;;;;;;;6192660;23;20021;-87
2023/02/12 10:35:32;;;;;;;20.05;14.05;;;;;;;;;;6158186;23;20021;-88
2023/02/12 10:38:03;;;;;;;20.42;14.15;;;;;;;;;;6156688;23;20017;-88
2023/02/12 10:40:32;;;;;;;23.95;13.43;;;;;;;;;;6185560;23;20024;-88
2023/02/12 10:43:01;;;;;;;17.65;13.05;;;;;;;;;;6192069;23;20549;-87
2023/02/12 10:45:31;;;;;;;20.50;16.20;;;;;;;;;;6158122;23;20024;-88
2023/02/12 10:48:11;;;;;;;21.67;15.30;;;;;;;;;;6157696;23;20017;-88
2023/02/12 10:50:49;;;;;;;18.02;13.05;;;;;;;;;;6157449;23;20024;-88
2023/02/12 10:53:22;;;;;;;20.60;14.68;;;;;;;;;;6131739;23;20027;-87
2023/02/12 10:55:50;;;;;;;19.52;13.88;;;;;;;;;;6157820;23;20024;-88
2023/02/12 10:58:20;;;;;;;16.20;13.63;;;;;;;;;;6157021;23;20020;-87
2023/02/12 11:00:56;;;;;;;23.02;14.48;;;;;;;;;;6157379;23;20472;-88
2023/02/12 11:03:29;;;;;;;21.17;13.88;;;;;;;;;;6132006;23;20186;-88
2023/02/12 11:05:56;;;;;;;18.60;15.15;;;;;;;;;;6155758;23;20013;-87
2023/02/12 11:08:32;;;;;;;20.55;13.82;;;;;;;;;;6131889;23;20220;-88
2023/02/12 11:11:09;;;;;;;20.40;14.07;;;;;;;;;;6158850;23;20032;-88
2023/02/12 11:13:37;;;;;;;19.25;13.15;;;;;;;;;;6155102;23;20044;-88
2023/02/12 11:16:05;;;;;;;19.67;14.05;;;;;;;;;;6182821;23;20021;-88
2023/02/12 11:18:36;;;;;;;15.60;11.65;;;;;;;;;;6183569;23;20112;-88
2023/02/12 11:21:05;;;;;;;14.38;10.57;;;;;;;;;;6184605;23;20013;-88
2023/02/12 11:23:34;;;;;;;19.35;13.48;;;;;;;;;;6182980;23;20017;-88
2023/02/12 11:26:03;;;;;;;15.57;13.15;;;;;;;;;;6180883;23;20017;-88
2023/02/12 11:28:35;;;;;;;16.38;10.65;;;;;;;;;;6155953;23;20032;-88
2023/02/12 11:31:05;;;;;;;16.13;10.18;;;;;;;;;;6132625;23;20473;-88
2023/02/12 11:33:36;;;;;;;15.93;11.38;;;;;;;;;;6156451;23;20017;-88
2023/02/12 11:36:11;;;;;;;17.50;11.05;;;;;;;;;;6194062;23;20020;-88
2023/02/12 11:38:47;;;;;;;13.65;10.52;;;;;;;;;;6190598;23;20057;-88
2023/02/12 11:41:24;;;;;;;15.52;11.90;;;;;;;;;;6193336;23;20020;-87
2023/02/12 11:43:56;;;;;;;12.57;9.18;;;;;;;;;;6193201;23;20020;-88
2023/02/12 11:46:27;;;;;;;11.75;9.38;;;;;;;;;;6131052;23;20017;-88
2023/02/12 11:48:59;;;;;;;16.08;7.78;;;;;;;;;;6132542;23;20024;-88
2023/02/12 11:51:29;;;;;;;10.02;8.20;;;;;;;;;;6193136;23;20017;-88
2023/02/12 11:53:58;;;;;;;11.60;7.00;;;;;;;;;;6156764;23;20017;-88
2023/02/12 11:56:41;;;;;;;9.68;6.25;;;;;;;;;;6183426;23;20028;-88
2023/02/12 12:13:54;;;;;;;3.67;2.88;;;;;;;;;;6121428;23;20030;-88
2023/02/12 12:22:04;;;;;;;3.58;2.33;;;;;;;;;;6131121;23;20022;-88
2023/02/12 12:24:39;;;;;;;2.67;1.88;;;;;;;;;;6097536;23;20018;-87
2023/02/12 12:28:01;;;;;;;3.08;1.98;;;;;;;;;;6133985;23;20473;-88
2023/02/12 12:30:08;;;;;;;2.15;1.77;;;;;;;;;;6137141;23;20012;-88
2023/02/12 12:32:39;;;;;;;6.15;3.63;;;;;;;;;;6080708;23;20018;-89
2023/02/12 12:35:11;;;;;;;3.75;2.65;;;;;;;;;;6122795;23;20025;-88
2023/02/12 12:37:41;;;;;;;4.53;2.30;;;;;;;;;;6122243;23;20010;-88
2023/02/12 12:40:23;;;;;;;4.05;3.17;;;;;;;;;;6124972;23;20029;-88
2023/02/12 12:43:11;;;;;;;5.00;2.90;;;;;;;;;;6096718;23;20033;-88
2023/02/12 12:46:05;;;;;;;6.43;3.28;;;;;;;;;;6097746;23;20026;-88
2023/02/12 13:03:01;;;;;;;4.13;3.50;;;;;;;;;;6193897;23;20021;-91
2023/02/12 13:06:14;;;;;;;6.00;4.38;;;;;;;;;;6124012;23;20483;-91
2023/02/12 13:09:18;;;;;;;5.68;3.78;;;;;;;;;;6111808;23;20021;-91
2023/02/12 13:12:23;;;;;;;5.10;3.65;;;;;;;;;;6103094;23;20357;-92
2023/02/12 13:21:47;;;;;;;7.25;5.20;;;;;;;;;;6126944;23;20330;-94
2023/02/12 13:27:15;;;;;;;7.18;5.68;;;;;;;;;;6149473;23;20017;-93
2023/02/12 13:29:45;;;;;;;8.23;6.10;;;;;;;;;;6126204;23;20021;-93
2023/02/12 13:38:15;;;;;;;9.30;6.63;;;;;;;;;;6127603;23;20021;-91
2023/02/12 13:49:23;;;;;;;12.95;8.57;;;;;;;;;;6126243;23;20021;-90
2023/02/12 14:17:51;;;;;;;9.65;5.40;;;;;;;;;;6184807;23;20017;-89
2023/02/12 14:20:27;;;;;;;5.82;5.03;;;;;;;;;;6161255;23;20326;-89
2023/02/12 14:23:24;;;;;;;8.18;4.72;;;;;;;;;;6131863;23;20338;-89
2023/02/12 14:26:03;;;;;;;10.10;5.97;;;;;;;;;;6159816;23;20069;-89
2023/02/12 14:28:41;;;;;;;8.05;5.68;;;;;;;;;;6133219;23;20028;-89
2023/02/12 14:31:32;;;;;;;8.35;5.70;;;;;;;;;;6194252;23;20369;-90
2023/02/12 14:34:33;;;;;;;10.23;5.93;;;;;;;;;;6157456;23;20017;-89
2023/02/12 14:37:16;;;;;;;7.22;5.40;;;;;;;;;;6154911;23;20021;-89
2023/02/12 14:39:45;;;;;;;7.32;6.05;;;;;;;;;;6158880;23;20032;-90
2023/02/12 14:42:44;;;;;;;9.35;6.07;;;;;;;;;;6157059;23;20009;-89
2023/02/12 14:45:31;;;;;;;7.93;5.55;;;;;;;;;;6182965;23;20028;-89
2023/02/12 14:47:59;;;;;;;11.98;6.25;;;;;;;;;;6167047;23;20020;-89
2023/02/12 14:50:36;;;;;;;7.88;5.57;;;;;;;;;;6184226;23;20377;-89
2023/02/12 15:01:06;;;;;;;8.38;6.22;;;;;;;;;;6181044;23;20013;-90
2023/02/12 15:03:41;;;;;;;10.15;6.35;;;;;;;;;;6132953;23;20036;-90
2023/02/12 15:06:15;;;;;;;8.23;4.95;;;;;;;;;;6133061;23;20021;-89
2023/02/12 15:08:51;;;;;;;6.80;4.88;;;;;;;;;;6167876;23;20116;-90
2023/02/12 15:30:57;;;;;;;8.85;6.03;;;;;;;;;;6181944;23;20024;-91
2023/02/12 15:33:33;;;;;;;6.93;5.07;;;;;;;;;;6132515;23;20021;-90
2023/02/12 15:36:03;;;;;;;8.90;5.15;;;;;;;;;;6156328;23;20036;-89
2023/02/12 15:41:48;;;;;;;7.38;4.93;;;;;;;;;;6154827;23;20487;-91
2023/02/12 15:50:10;;;;;;;8.80;5.63;;;;;;;;;;6155417;23;20025;-92
2023/02/12 15:55:38;;;;;;;6.85;5.07;;;;;;;;;;6149606;23;20029;-91
2023/02/12 16:04:26;;;;;;;6.83;4.43;;;;;;;;;;6154510;23;20021;-90
2023/02/12 16:06:53;;;;;;;7.47;5.05;;;;;;;;;;6132061;23;20017;-90
2023/02/12 16:09:27;;;;;;;5.28;4.22;;;;;;;;;;6132664;23;20039;-91
2023/02/12 16:12:03;;;;;;;6.45;4.22;;;;;;;;;;6156068;23;20028;-91
2023/02/12 16:18:26;;;;;;;7.82;5.00;;;;;;;;;;6154060;23;20017;-91
2023/02/12 16:21:19;;;;;;;6.43;4.87;;;;;;;;;;6111991;23;20023;-91
2023/02/12 16:23:49;;;;;;;8.32;5.00;;;;;;;;;;6134841;23;20017;-90
2023/02/12 16:26:28;;;;;;;6.47;4.65;;;;;;;;;;6159573;23;20035;-91
2023/02/12 16:29:04;;;;;;;7.75;5.10;;;;;;;;;;6144169;23;20009;-91
2023/02/12 16:31:39;;;;;;;6.93;5.18;;;;;;;;;;6178149;23;20009;-89
2023/02/12 16:34:27;;;;;;;7.78;5.55;;;;;;;;;;6158776;23;20001;-90
2023/02/12 16:36:58;;;;;;;6.90;4.35;;;;;;;;;;6161379;23;20052;-91
2023/02/12 16:40:04;;;;;;;5.68;5.13;;;;;;;;;;6152976;23;20017;-91
2023/02/12 16:42:35;;;;;;;4.65;4.03;;;;;;;;;;6112301;23;20017;-92
2023/02/12 16:45:43;;;;;;;4.95;4.20;;;;;;;;;;6140612;23;20027;-92
2023/02/12 16:48:19;;;;;;;8.23;4.10;;;;;;;;;;6163522;23;20028;-91
2023/02/12 16:54:05;;;;;;;5.90;4.07;;;;;;;;;;6156560;23;20021;-89
2023/02/12 16:56:37;;;;;;;4.97;4.47;;;;;;;;;;6131395;23;20024;-90
2023/02/12 17:13:34;;;;;;;11.27;6.57;;;;;;;;;;6004968;23;20027;-88
2023/02/12 17:16:02;;;;;;;12.75;9.18;;;;;;;;;;6169815;23;20017;-89
2023/02/12 17:18:31;;;;;;;7.38;5.18;;;;;;;;;;6135165;23;20025;-89
2023/02/12 17:21:02;;;;;;;9.05;6.22;;;;;;;;;;6149424;23;20029;-89
2023/02/12 17:23:29;;;;;;;18.90;11.55;;;;;;;;;;6120887;23;20040;-89
2023/02/12 17:25:57;;;;;;;12.70;10.07;;;;;;;;;;6147212;23;20029;-88
2023/02/12 17:28:24;;;;;;;11.80;7.18;;;;;;;;;;6097309;23;20025;-88
2023/02/12 17:30:53;;;;;;;9.30;6.53;;;;;;;;;;6146509;23;20021;-89
2023/02/12 17:33:21;;;;;;;10.27;6.95;;;;;;;;;;6147082;23;20021;-87
2023/02/12 17:35:48;;;;;;;8.10;4.70;;;;;;;;;;6119422;23;20357;-87
2023/02/12 17:38:16;;;;;;;7.82;6.05;;;;;;;;;;6122607;23;20028;-87
2023/02/12 17:40:43;;;;;;;8.52;5.60;;;;;;;;;;6119689;23;20021;-88
2023/02/12 17:43:10;;;;;;;9.40;5.38;;;;;;;;;;6144911;23;20442;-88
2023/02/12 18:01:46;;;;;;;6.45;4.63;;;;;;;;;;5911582;24;20028;-86
2023/02/12 18:04:16;;;;;;;8.85;4.68;;;;;;;;;;6137401;23;20025;-86
2023/02/12 18:06:43;;;;;;;6.95;4.93;;;;;;;;;;6146477;23;20029;-87
2023/02/12 18:09:10;;;;;;;5.97;4.93;;;;;;;;;;6145036;23;20473;-87
2023/02/12 18:11:40;;;;;;;7.18;6.18;;;;;;;;;;6144195;23;20350;-87
2023/02/12 18:14:15;;;;;;;5.57;4.07;;;;;;;;;;6118728;23;20461;-87
2023/02/12 18:16:42;;;;;;;7.30;5.10;;;;;;;;;;6155538;23;20017;-87
2023/02/12 18:19:10;;;;;;;7.50;5.53;;;;;;;;;;6147873;23;20013;-87
2023/02/12 18:21:37;;;;;;;16.92;8.48;;;;;;;;;;6155819;23;20018;-88
2023/02/12 18:24:06;;;;;;;8.63;6.25;;;;;;;;;;6118888;23;20025;-87
2023/02/12 18:26:33;;;;;;;9.93;8.52;;;;;;;;;;6120234;23;20021;-87
2023/02/12 18:29:01;;;;;;;17.58;12.02;;;;;;;;;;6147036;23;20021;-87
2023/02/12 18:31:29;;;;;;;12.70;9.73;;;;;;;;;;6119873;23;20029;-87
2023/02/12 18:33:57;;;;;;;12.05;8.75;;;;;;;;;;6095059;23;20036;-87
2023/02/12 18:36:24;;;;;;;11.30;8.32;;;;;;;;;;6145977;23;20028;-87
2023/02/12 18:38:52;;;;;;;9.10;6.68;;;;;;;;;;6119736;23;20021;-87
2023/02/12 18:41:22;;;;;;;9.50;6.35;;;;;;;;;;6120401;23;20022;-87
2023/02/12 18:43:49;;;;;;;8.75;6.82;;;;;;;;;;6118845;23;20018;-86
2023/02/12 18:46:18;;;;;;;11.25;6.78;;;;;;;;;;6145714;23;20022;-87
2023/02/12 18:48:49;;;;;;;8.00;7.15;;;;;;;;;;6128741;23;20018;-86
2023/02/12 18:51:18;;;;;;;10.02;8.68;;;;;;;;;;6173905;23;20020;-86
2023/02/12 18:53:46;;;;;;;6.82;6.00;;;;;;;;;;6148964;23;20021;-86
2023/02/12 18:56:13;;;;;;;11.43;7.38;;;;;;;;;;6160193;23;20016;-86